createdAt,value
2022-12-18T00:00:57.643Z,100.00
2022-12-18T00:04:02.544Z,100.00
2022-12-18T00:07:08.541Z,100.00
2022-12-18T00:10:15.368Z,100.00
2022-12-18T00:13:21.388Z,100.00
2022-12-18T00:16:35.005Z,100.00
2022-12-18T00:19:40.212Z,100.00
2022-12-18T00:22:39.474Z,100.00
2022-12-18T00:25:41.130Z,100.00
2022-12-18T00:28:47.085Z,100.00
2022-12-18T00:31:52.896Z,100.00
2022-12-18T00:34:58.099Z,100.00
2022-12-18T00:38:03.609Z,100.00
2022-12-18T00:41:09.891Z,100.00
2022-12-18T00:44:16.172Z,100.00
2022-12-18T00:47:24.222Z,100.00
2022-12-18T00:50:29.934Z,100.00
2022-12-18T00:53:35.786Z,100.00
2022-12-18T00:56:49.965Z,100.00
2022-12-18T00:59:48.910Z,100.00
2022-12-18T01:02:54.555Z,100.00
2022-12-18T01:06:00.816Z,100.00
2022-12-18T01:09:06.323Z,100.00
2022-12-18T01:12:11.084Z,100.00
2022-12-18T01:15:17.442Z,100.00
2022-12-18T01:18:22.748Z,100.00
2022-12-18T01:21:31.876Z,100.00
2022-12-18T01:24:38.501Z,100.00
2022-12-18T01:27:44.204Z,100.00
2022-12-18T01:30:49.909Z,100.00
2022-12-18T01:33:56.062Z,99.76
2022-12-18T01:37:02.109Z,98.70
2022-12-18T01:40:07.910Z,98.09
2022-12-18T01:43:13.417Z,97.99
2022-12-18T01:46:19.292Z,98.19
2022-12-18T01:49:27.025Z,97.94
2022-12-18T01:52:32.708Z,96.66
2022-12-18T01:55:39.952Z,94.40
2022-12-18T01:58:58.065Z,94.17
2022-12-18T02:02:04.529Z,94.46
2022-12-18T02:05:11.396Z,92.69
2022-12-18T02:08:36.437Z,92.33
2022-12-18T02:12:10.070Z,92.03
2022-12-18T02:15:32.914Z,91.74
2022-12-18T02:18:43.133Z,91.85
2022-12-18T02:22:37.158Z,92.28
2022-12-18T02:26:17.267Z,92.78
2022-12-18T02:29:30.597Z,93.25
2022-12-18T02:32:43.082Z,93.96
2022-12-18T02:35:49.360Z,94.53
2022-12-18T02:38:57.582Z,91.69
2022-12-18T02:42:02.483Z,90.84
2022-12-18T02:45:11.256Z,90.67
2022-12-18T02:48:16.782Z,90.76
2022-12-18T02:51:32.882Z,91.37
2022-12-18T02:54:59.479Z,91.41
2022-12-18T02:58:38.493Z,92.08
2022-12-18T03:01:55.123Z,92.03
2022-12-18T03:05:15.279Z,92.37
2022-12-18T03:08:39.985Z,90.91
2022-12-18T03:12:05.972Z,91.22
2022-12-18T03:15:36.877Z,91.62
2022-12-18T03:18:52.033Z,91.36
2022-12-18T03:22:06.012Z,91.05
2022-12-18T03:25:15.671Z,91.63
2022-12-18T03:28:24.004Z,92.20
2022-12-18T03:31:31.757Z,92.41
2022-12-18T03:34:45.081Z,92.13
2022-12-18T03:37:52.193Z,92.74
2022-12-18T03:41:20.275Z,93.14
2022-12-18T03:44:48.938Z,93.32
2022-12-18T03:48:21.897Z,93.03
2022-12-18T03:51:40.414Z,92.31
2022-12-18T03:54:46.110Z,92.96
2022-12-18T03:57:51.638Z,93.54
2022-12-18T04:00:59.857Z,93.75
2022-12-18T04:04:06.622Z,94.07
2022-12-18T04:07:12.072Z,94.56
2022-12-18T04:10:18.789Z,95.25
2022-12-18T04:13:24.634Z,95.19
2022-12-18T04:16:30.979Z,94.55
2022-12-18T04:19:38.688Z,94.11
2022-12-18T04:22:44.202Z,93.97
2022-12-18T04:25:50.394Z,94.42
2022-12-18T04:28:59.075Z,94.55
2022-12-18T04:32:04.427Z,94.77
2022-12-18T04:35:11.535Z,95.06
2022-12-18T04:38:17.936Z,95.10
2022-12-18T04:41:25.375Z,95.26
2022-12-18T04:44:30.941Z,95.13
2022-12-18T04:47:38.271Z,94.69
2022-12-18T04:50:38.045Z,94.69
2022-12-18T04:53:30.693Z,94.34
2022-12-18T04:56:36.340Z,94.22
2022-12-18T04:59:42.529Z,93.54
2022-12-18T05:02:48.763Z,93.08
2022-12-18T05:05:55.282Z,92.85
2022-12-18T05:09:01.434Z,92.99
2022-12-18T05:12:07.310Z,93.01
2022-12-18T05:15:12.715Z,93.24
2022-12-18T05:18:18.246Z,93.18
2022-12-18T05:21:24.154Z,92.54
2022-12-18T05:24:36.482Z,91.49
2022-12-18T05:27:42.584Z,89.98
2022-12-18T05:30:50.076Z,91.36
2022-12-18T05:33:54.938Z,91.00
2022-12-18T05:37:00.910Z,90.78
2022-12-18T05:40:05.719Z,90.47
2022-12-18T05:43:10.792Z,89.81
2022-12-18T05:46:15.040Z,88.24
2022-12-18T05:49:20.954Z,88.34
2022-12-18T05:52:26.054Z,88.59
2022-12-18T05:55:31.387Z,88.02
2022-12-18T05:58:31.907Z,87.83
2022-12-18T06:01:31.890Z,87.12
2022-12-18T06:04:37.357Z,86.87
2022-12-18T06:07:43.053Z,86.85
2022-12-18T06:10:48.655Z,86.79
2022-12-18T06:13:58.276Z,87.46
2022-12-18T06:17:01.709Z,87.39
2022-12-18T06:20:07.820Z,87.58
2022-12-18T06:23:13.008Z,87.74
2022-12-18T06:26:28.376Z,88.21
2022-12-18T06:29:33.243Z,88.46
2022-12-18T06:32:39.147Z,89.32
2022-12-18T06:35:43.909Z,89.79
2022-12-18T06:38:50.345Z,89.52
2022-12-18T06:41:55.358Z,89.55
2022-12-18T06:45:01.802Z,90.17
2022-12-18T06:48:07.576Z,90.82
2022-12-18T06:51:13.687Z,91.07
2022-12-18T06:54:19.910Z,91.34
2022-12-18T06:57:26.624Z,91.21
2022-12-18T07:00:32.648Z,91.18
2022-12-18T07:03:40.016Z,90.97
2022-12-18T07:06:45.536Z,90.86
2022-12-18T07:09:51.322Z,89.61
2022-12-18T07:12:57.151Z,89.21
2022-12-18T07:16:03.170Z,88.60
2022-12-18T07:19:10.200Z,88.04
2022-12-18T07:22:16.661Z,88.07
2022-12-18T07:25:26.774Z,87.41
2022-12-18T07:28:32.060Z,87.10
2022-12-18T07:31:37.712Z,87.52
2022-12-18T07:34:43.532Z,87.87
2022-12-18T07:37:50.530Z,87.87
2022-12-18T07:40:55.983Z,88.26
2022-12-18T07:44:02.563Z,88.32
2022-12-18T07:47:12.031Z,87.46
2022-12-18T07:50:18.669Z,85.92
2022-12-18T07:53:23.893Z,85.36
2022-12-18T07:56:31.210Z,84.68
2022-12-18T07:59:37.198Z,84.76
2022-12-18T08:02:44.680Z,84.42
2022-12-18T08:05:51.331Z,84.31
2022-12-18T08:08:57.265Z,84.93
2022-12-18T08:12:03.408Z,85.06
2022-12-18T08:15:09.508Z,84.55
2022-12-18T08:18:15.153Z,84.82
2022-12-18T08:21:35.135Z,85.67
2022-12-18T08:24:41.380Z,85.86
2022-12-18T08:27:48.655Z,85.98
2022-12-18T08:30:55.814Z,85.73
2022-12-18T08:34:00.370Z,85.81
2022-12-18T08:37:06.501Z,86.18
2022-12-18T08:40:11.500Z,86.78
2022-12-18T08:43:35.748Z,86.65
2022-12-18T08:46:42.712Z,86.37
2022-12-18T08:49:49.298Z,86.10
2022-12-18T08:52:55.461Z,85.92
2022-12-18T08:56:02.443Z,85.33
2022-12-18T08:59:15.781Z,84.96
2022-12-18T09:02:17.957Z,84.97
2022-12-18T09:05:24.329Z,85.41
2022-12-18T09:08:29.780Z,85.69
2022-12-18T09:11:41.068Z,85.49
2022-12-18T09:14:47.454Z,84.89
2022-12-18T09:17:53.509Z,85.00
2022-12-18T09:21:00.371Z,84.87
2022-12-18T09:24:09.691Z,84.97
2022-12-18T09:27:14.875Z,85.10
2022-12-18T09:30:22.161Z,85.66
2022-12-18T09:33:27.652Z,85.53
2022-12-18T09:36:34.510Z,85.55
2022-12-18T09:39:40.478Z,86.25
2022-12-18T09:42:47.095Z,85.84
2022-12-18T09:45:57.402Z,85.84
2022-12-18T09:49:05.197Z,85.79
2022-12-18T09:52:26.724Z,85.44
2022-12-18T09:55:51.251Z,85.73
2022-12-18T09:59:04.329Z,85.62
2022-12-18T10:02:10.123Z,84.24
2022-12-18T10:05:20.946Z,83.61
2022-12-18T10:08:50.918Z,83.86
2022-12-18T10:12:20.204Z,83.62
2022-12-18T10:15:37.716Z,83.38
2022-12-18T10:18:55.920Z,82.61
2022-12-18T10:22:15.428Z,82.73
2022-12-18T10:25:32.311Z,82.57
2022-12-18T10:28:37.781Z,82.58
2022-12-18T10:31:43.948Z,82.33
2022-12-18T10:34:50.644Z,82.05
2022-12-18T10:38:00.728Z,81.66
2022-12-18T10:41:19.205Z,82.48
2022-12-18T10:44:37.917Z,82.43
2022-12-18T10:47:42.854Z,81.43
2022-12-18T10:54:04.398Z,80.76
2022-12-18T10:57:13.479Z,79.54
2022-12-18T11:00:43.249Z,80.37
2022-12-18T11:04:01.987Z,81.04
2022-12-18T11:07:23.479Z,80.86
2022-12-18T11:10:32.765Z,81.06
2022-12-18T11:13:44.001Z,81.50
2022-12-18T11:17:24.949Z,81.11
2022-12-18T11:20:12.464Z,80.70
2022-12-18T11:23:27.021Z,80.70
2022-12-18T11:26:32.389Z,80.55
2022-12-18T11:29:47.151Z,80.51
2022-12-18T11:32:55.121Z,80.85
2022-12-18T11:36:11.861Z,80.71
2022-12-18T11:39:36.443Z,80.51
2022-12-18T11:42:53.486Z,80.29
2022-12-18T11:46:19.923Z,80.36
2022-12-18T11:49:31.404Z,80.26
2022-12-18T11:52:56.075Z,80.78
2022-12-18T11:56:03.291Z,79.39
2022-12-18T11:59:21.631Z,78.50
2022-12-18T12:02:33.657Z,78.66
2022-12-18T12:06:09.195Z,78.87
2022-12-18T12:09:40.943Z,79.02
2022-12-18T12:13:19.845Z,78.62
2022-12-18T12:16:41.038Z,78.83
2022-12-18T12:19:59.596Z,78.84
2022-12-18T12:23:13.020Z,78.29
2022-12-18T12:26:44.591Z,78.24
2022-12-18T12:30:10.244Z,77.85
2022-12-18T12:33:45.101Z,76.81
2022-12-18T12:37:29.056Z,76.61
2022-12-18T12:40:56.974Z,76.76
2022-12-18T12:44:00.781Z,76.50
2022-12-18T12:46:59.712Z,76.98
2022-12-18T12:50:08.080Z,76.15
2022-12-18T12:53:13.142Z,76.27
2022-12-18T12:56:19.826Z,76.37
2022-12-18T12:59:46.703Z,75.61
2022-12-18T13:03:17.355Z,75.65
2022-12-18T13:06:27.577Z,75.84
2022-12-18T13:09:32.507Z,75.15
2022-12-18T13:12:57.048Z,75.25
2022-12-18T13:15:59.625Z,74.78
2022-12-18T13:19:10.388Z,74.30
2022-12-18T13:22:17.031Z,74.53
2022-12-18T13:25:51.639Z,75.20
2022-12-18T13:29:02.166Z,75.45
2022-12-18T13:32:18.415Z,75.71
2022-12-18T13:35:41.514Z,75.78
2022-12-18T13:38:51.273Z,75.90
2022-12-18T13:41:57.352Z,74.72
2022-12-18T13:45:02.301Z,74.06
2022-12-18T13:48:07.292Z,74.25
2022-12-18T13:51:25.945Z,73.41
2022-12-18T13:54:36.150Z,73.58
2022-12-18T13:57:51.091Z,73.91
2022-12-18T14:00:59.243Z,74.35
2022-12-18T14:04:06.078Z,74.37
2022-12-18T14:07:20.241Z,74.62
2022-12-18T14:13:55.262Z,75.28
2022-12-18T14:17:01.822Z,75.89
2022-12-18T14:20:08.503Z,76.95
2022-12-18T14:23:14.406Z,75.99
2022-12-18T14:26:40.793Z,75.37
2022-12-18T14:29:46.398Z,74.41
2022-12-18T14:32:53.040Z,74.72
2022-12-18T14:36:17.056Z,74.51
2022-12-18T14:39:24.911Z,74.25
2022-12-18T14:42:31.298Z,74.53
2022-12-18T14:45:59.778Z,74.55
2022-12-18T14:49:04.854Z,74.70
2022-12-18T14:52:14.661Z,74.69
2022-12-18T14:55:20.725Z,74.42
2022-12-18T14:58:27.103Z,72.33
2022-12-18T15:01:40.244Z,73.40
2022-12-18T15:04:49.088Z,73.60
2022-12-18T15:08:04.608Z,73.57
2022-12-18T15:11:13.277Z,73.16
2022-12-18T15:14:42.781Z,73.57
2022-12-18T15:17:48.168Z,73.92
2022-12-18T15:21:07.723Z,74.71
2022-12-18T15:24:13.352Z,75.03
2022-12-18T15:27:19.071Z,74.78
2022-12-18T15:30:35.146Z,74.96
2022-12-18T15:33:42.021Z,73.85
2022-12-18T15:36:47.122Z,73.57
2022-12-18T15:39:53.573Z,73.66
2022-12-18T15:43:18.566Z,74.33
2022-12-18T15:46:36.305Z,75.00
2022-12-18T15:49:41.760Z,74.79
2022-12-18T15:52:57.596Z,74.98
2022-12-18T15:56:21.431Z,73.85
2022-12-18T15:59:31.169Z,73.12
2022-12-18T16:02:38.773Z,73.42
2022-12-18T16:05:45.557Z,73.52
2022-12-18T16:08:50.570Z,72.53
2022-12-18T16:11:58.155Z,72.83
2022-12-18T16:15:03.827Z,73.84
2022-12-18T16:18:09.946Z,73.31
2022-12-18T16:21:15.781Z,73.15
2022-12-18T16:24:21.087Z,72.66
2022-12-18T16:27:27.076Z,73.01
2022-12-18T16:30:38.650Z,72.37
2022-12-18T16:33:42.760Z,72.39
2022-12-18T16:36:42.157Z,71.60
2022-12-18T16:39:47.139Z,70.49
2022-12-18T16:42:48.695Z,70.39
2022-12-18T16:45:53.960Z,70.18
2022-12-18T16:49:00.597Z,71.24
2022-12-18T16:52:06.128Z,71.37
2022-12-18T16:55:11.145Z,71.38
2022-12-18T16:58:16.763Z,71.87
2022-12-18T17:01:26.813Z,72.81
2022-12-18T17:04:31.516Z,71.76
2022-12-18T17:07:37.652Z,71.57
2022-12-18T17:10:44.072Z,70.86
2022-12-18T17:13:44.576Z,69.71
2022-12-18T17:17:07.204Z,69.11
2022-12-18T17:19:51.060Z,66.57
2022-12-18T17:22:38.100Z,67.80
2022-12-18T17:25:30.658Z,65.99
2022-12-18T17:28:23.362Z,67.94
2022-12-18T17:31:36.445Z,67.58
2022-12-18T17:34:43.272Z,67.18
2022-12-18T17:37:49.947Z,68.07
2022-12-18T17:40:56.829Z,69.45
2022-12-18T17:44:10.419Z,68.72
2022-12-18T17:47:17.904Z,68.01
2022-12-18T17:50:23.982Z,68.32
2022-12-18T17:53:30.066Z,68.22
2022-12-18T17:56:36.553Z,67.62
2022-12-18T17:59:42.998Z,67.21
2022-12-18T18:02:49.478Z,66.36
2022-12-18T18:05:55.827Z,67.74
2022-12-18T18:09:01.435Z,67.09
2022-12-18T18:12:25.674Z,66.89
2022-12-18T18:15:31.308Z,67.26
2022-12-18T18:18:36.600Z,65.45
2022-12-18T18:21:37.058Z,65.92
2022-12-18T18:24:42.949Z,65.54
2022-12-18T18:27:49.763Z,66.25
2022-12-18T18:30:55.852Z,66.64
2022-12-18T18:34:00.891Z,65.96
2022-12-18T18:37:06.492Z,65.31
2022-12-18T18:40:11.802Z,65.57
2022-12-18T18:43:16.629Z,65.98
2022-12-18T18:46:21.936Z,65.89
2022-12-18T18:49:28.469Z,66.97
2022-12-18T18:52:27.284Z,66.21
2022-12-18T18:55:25.839Z,66.71
2022-12-18T18:58:27.355Z,66.41
2022-12-18T19:01:35.155Z,67.25
2022-12-18T19:04:45.785Z,66.46
2022-12-18T19:07:49.061Z,67.02
2022-12-18T19:10:57.810Z,67.63
2022-12-18T19:14:03.247Z,67.21
2022-12-18T19:17:09.555Z,66.08
2022-12-18T19:20:15.507Z,66.36
2022-12-18T19:23:20.655Z,66.92
2022-12-18T19:26:28.553Z,66.77
2022-12-18T19:29:32.905Z,67.78
2022-12-18T19:32:38.727Z,67.93
2022-12-18T19:35:37.952Z,67.88
2022-12-18T19:38:31.213Z,68.21
2022-12-18T19:41:37.175Z,68.04
2022-12-18T19:44:42.466Z,67.81
2022-12-18T19:47:48.143Z,68.16
2022-12-18T19:50:56.761Z,67.65
2022-12-18T19:54:02.234Z,68.95
2022-12-18T19:57:08.920Z,69.50
2022-12-18T20:00:18.813Z,69.04
2022-12-18T20:03:30.592Z,68.44
2022-12-18T20:06:41.240Z,67.48
2022-12-18T20:09:47.889Z,66.02
2022-12-18T20:12:54.343Z,65.42
2022-12-18T20:16:00.610Z,67.11
2022-12-18T20:19:06.539Z,66.65
2022-12-18T20:22:12.260Z,67.73
2022-12-18T20:25:17.834Z,67.36
2022-12-18T20:28:23.591Z,67.18
2022-12-18T20:31:29.792Z,65.84
2022-12-18T20:34:34.938Z,64.73
2022-12-18T20:37:43.822Z,64.68
2022-12-18T20:40:48.247Z,64.27
2022-12-18T20:43:56.016Z,64.66
2022-12-18T20:47:02.349Z,64.03
2022-12-18T20:50:09.667Z,65.49
2022-12-18T20:53:15.621Z,66.02
2022-12-18T20:56:24.248Z,66.40
2022-12-18T20:59:31.947Z,64.94
2022-12-18T21:02:38.416Z,65.61
2022-12-18T21:05:44.895Z,65.75
2022-12-18T21:08:44.725Z,65.43
2022-12-18T21:12:10.316Z,64.42
2022-12-18T21:15:28.228Z,64.82
2022-12-18T21:18:29.651Z,65.40
2022-12-18T21:21:38.456Z,65.55
2022-12-18T21:24:41.447Z,66.58
2022-12-18T21:27:46.898Z,67.34
2022-12-18T21:30:53.396Z,67.24
2022-12-18T21:34:02.148Z,66.45
2022-12-18T21:37:09.297Z,66.01
2022-12-18T21:40:14.723Z,65.42
2022-12-18T21:43:37.925Z,65.72
2022-12-18T21:46:43.274Z,65.47
2022-12-18T21:49:50.066Z,66.26
2022-12-18T21:52:56.725Z,67.14
2022-12-18T21:56:04.877Z,66.77
2022-12-18T21:59:12.072Z,66.27
2022-12-18T22:02:22.126Z,64.70
2022-12-18T22:05:28.346Z,63.85
2022-12-18T22:08:33.981Z,64.19
2022-12-18T22:11:40.324Z,64.40
2022-12-18T22:14:46.898Z,63.50
2022-12-18T22:17:56.984Z,62.73
2022-12-18T22:21:00.642Z,63.51
2022-12-18T22:24:14.577Z,62.34
2022-12-18T22:27:20.504Z,62.00
2022-12-18T22:30:29.078Z,62.69
2022-12-18T22:33:34.738Z,63.60
2022-12-18T22:36:39.869Z,62.94
2022-12-18T22:39:46.697Z,62.81
2022-12-18T22:42:53.896Z,62.62
2022-12-18T22:46:00.065Z,63.32
2022-12-18T22:49:05.556Z,64.38
2022-12-18T22:52:11.178Z,63.42
2022-12-18T22:55:17.860Z,63.72
2022-12-18T22:58:23.438Z,63.15
2022-12-18T23:01:34.940Z,64.22
2022-12-18T23:04:45.625Z,64.58
2022-12-18T23:07:51.594Z,64.48
2022-12-18T23:10:57.813Z,63.67
2022-12-18T23:14:04.840Z,63.62
2022-12-18T23:17:10.596Z,62.86
2022-12-18T23:20:16.210Z,62.98
2022-12-18T23:23:21.830Z,63.03
2022-12-18T23:26:36.212Z,63.32
2022-12-18T23:29:41.517Z,63.89
2022-12-18T23:32:52.133Z,65.01
2022-12-18T23:35:59.095Z,65.57
2022-12-18T23:39:12.158Z,65.72
2022-12-18T23:42:19.193Z,65.93
2022-12-18T23:45:26.526Z,65.91
2022-12-18T23:48:33.880Z,66.94
2022-12-18T23:51:39.091Z,67.30
2022-12-18T23:54:45.962Z,67.80
2022-12-18T23:57:52.606Z,68.13
